createdAt,value
2023-07-27T00:02:32.850Z,100.00
2023-07-27T00:05:17.226Z,100.00
2023-07-27T00:08:01.404Z,100.00
2023-07-27T00:10:45.627Z,100.00
2023-07-27T00:13:29.765Z,100.00
2023-07-27T00:16:13.839Z,100.00
2023-07-27T00:18:59.261Z,98.55
2023-07-27T00:21:43.480Z,97.95
2023-07-27T00:24:27.571Z,96.90
2023-07-27T00:27:11.611Z,94.99
2023-07-27T00:29:55.730Z,94.21
2023-07-27T00:32:39.912Z,94.93
2023-07-27T00:35:25.381Z,92.92
2023-07-27T00:38:09.485Z,93.75
2023-07-27T00:40:53.608Z,92.02
2023-07-27T00:43:37.654Z,91.90
2023-07-27T00:46:21.816Z,91.50
2023-07-27T00:49:06.919Z,90.75
2023-07-27T00:51:53.146Z,91.62
2023-07-27T00:54:37.700Z,90.40
2023-07-27T00:57:22.479Z,91.66
2023-07-27T01:00:07.461Z,90.40
2023-07-27T01:02:52.246Z,90.05
2023-07-27T01:05:36.817Z,88.70
2023-07-27T01:08:23.260Z,87.95
2023-07-27T01:11:13.450Z,88.87
2023-07-27T01:14:03.069Z,88.54
2023-07-27T01:16:54.046Z,88.03
2023-07-27T01:20:11.152Z,88.83
2023-07-27T01:23:22.229Z,88.28
2023-07-27T01:26:42.287Z,87.38
2023-07-27T01:30:05.034Z,88.88
2023-07-27T01:32:57.548Z,89.02
2023-07-27T01:35:48.692Z,89.16
2023-07-27T01:38:34.791Z,88.10
2023-07-27T01:41:20.393Z,88.70
2023-07-27T01:44:05.039Z,88.64
2023-07-27T01:46:49.331Z,87.31
2023-07-27T01:49:36.333Z,88.57
2023-07-27T01:52:22.380Z,86.78
2023-07-27T01:55:08.333Z,86.99
2023-07-27T01:57:53.684Z,87.20
2023-07-27T02:00:38.351Z,85.70
2023-07-27T02:03:22.791Z,87.57
2023-07-27T02:06:08.325Z,86.84
2023-07-27T02:08:52.397Z,87.72
2023-07-27T02:11:38.687Z,87.79
2023-07-27T02:14:29.971Z,86.58
2023-07-27T02:17:29.599Z,88.33
2023-07-27T02:20:38.112Z,88.09
2023-07-27T02:23:24.524Z,88.24
2023-07-27T02:26:09.199Z,87.02
2023-07-27T02:28:53.389Z,88.12
2023-07-27T02:31:37.585Z,89.27
2023-07-27T02:34:22.507Z,87.41
2023-07-27T02:37:07.239Z,86.74
2023-07-27T02:39:52.831Z,87.42
2023-07-27T02:42:37.078Z,88.42
2023-07-27T02:45:21.068Z,88.20
2023-07-27T02:48:05.416Z,90.05
2023-07-27T02:50:52.857Z,87.88
2023-07-27T02:53:37.625Z,88.90
2023-07-27T02:56:32.051Z,88.28
2023-07-27T02:59:16.378Z,87.40
2023-07-27T03:02:02.680Z,88.76
2023-07-27T03:04:51.789Z,87.80
2023-07-27T03:07:36.036Z,87.70
2023-07-27T03:10:20.104Z,87.78
2023-07-27T03:13:06.223Z,89.19
2023-07-27T03:15:52.913Z,88.74
2023-07-27T03:18:37.563Z,88.42
2023-07-27T03:21:21.588Z,89.68
2023-07-27T03:24:06.137Z,94.70
2023-07-27T03:26:52.090Z,100.00
2023-07-27T03:29:37.970Z,100.00
2023-07-27T03:32:27.762Z,100.00
2023-07-27T03:35:11.899Z,100.00
2023-07-27T03:37:56.057Z,100.00
2023-07-27T03:40:41.205Z,100.00
2023-07-27T03:43:25.284Z,100.00
2023-07-27T03:46:11.050Z,100.00
2023-07-27T03:48:55.481Z,100.00
2023-07-27T03:51:39.627Z,100.00
2023-07-27T03:54:23.697Z,100.00
2023-07-27T03:57:08.050Z,100.00
2023-07-27T03:59:56.658Z,100.00
2023-07-27T04:02:42.156Z,100.00
2023-07-27T04:05:26.613Z,100.00
2023-07-27T04:08:11.602Z,100.00
2023-07-27T04:10:55.799Z,100.00
2023-07-27T04:13:40.216Z,97.28
2023-07-27T04:16:24.571Z,99.37
2023-07-27T04:19:10.333Z,100.00
2023-07-27T04:21:54.407Z,100.00
2023-07-27T04:24:39.992Z,100.00
2023-07-27T04:27:24.099Z,100.00
2023-07-27T04:30:09.217Z,100.00
2023-07-27T04:32:53.321Z,100.00
2023-07-27T04:35:38.988Z,100.00
2023-07-27T04:38:23.050Z,100.00
2023-07-27T04:41:07.349Z,100.00
2023-07-27T04:43:51.502Z,100.00
2023-07-27T04:46:36.138Z,100.00
2023-07-27T04:49:20.756Z,100.00
2023-07-27T04:52:07.410Z,100.00
2023-07-27T04:54:51.421Z,100.00
2023-07-27T04:57:35.505Z,100.00
2023-07-27T05:00:20.248Z,100.00
2023-07-27T05:03:04.395Z,100.00
2023-07-27T05:05:48.422Z,100.00
2023-07-27T05:08:34.056Z,100.00
2023-07-27T05:11:18.121Z,100.00
2023-07-27T05:14:02.293Z,100.00
2023-07-27T05:16:46.374Z,100.00
2023-07-27T05:19:30.409Z,98.98
2023-07-27T05:22:14.432Z,99.88
2023-07-27T05:24:59.787Z,99.23
2023-07-27T05:27:44.038Z,98.72
2023-07-27T05:30:28.049Z,99.23
2023-07-27T05:33:12.327Z,96.80
2023-07-27T05:35:56.443Z,93.56
2023-07-27T05:38:40.502Z,95.83
2023-07-27T05:41:26.062Z,94.12
2023-07-27T05:44:11.504Z,91.90
2023-07-27T05:46:57.911Z,90.98
2023-07-27T05:49:42.335Z,92.88
2023-07-27T05:52:26.500Z,96.65
2023-07-27T05:55:10.941Z,96.43
2023-07-27T05:57:58.072Z,100.00
2023-07-27T06:00:45.862Z,100.00
2023-07-27T06:03:29.990Z,100.00
2023-07-27T06:06:13.996Z,100.00
2023-07-27T06:08:58.099Z,100.00
2023-07-27T06:11:42.301Z,100.00
2023-07-27T06:14:27.939Z,100.00
2023-07-27T06:17:12.168Z,100.00
2023-07-27T06:19:56.305Z,100.00
2023-07-27T06:22:40.272Z,100.00
2023-07-27T06:25:24.853Z,100.00
2023-07-27T06:28:08.774Z,100.00
2023-07-27T06:30:54.173Z,100.00
2023-07-27T06:33:38.285Z,100.00
2023-07-27T06:36:23.156Z,100.00
2023-07-27T06:39:07.642Z,100.00
2023-07-27T06:41:52.928Z,100.00
2023-07-27T06:44:45.550Z,100.00
2023-07-27T06:47:31.152Z,100.00
2023-07-27T06:50:15.228Z,100.00
2023-07-27T06:52:59.196Z,100.00
2023-07-27T06:55:43.169Z,100.00
2023-07-27T06:58:27.155Z,100.00
2023-07-27T07:01:12.046Z,100.00
2023-07-27T07:03:57.638Z,100.00
2023-07-27T07:06:42.222Z,100.00
2023-07-27T07:09:26.429Z,100.00
2023-07-27T07:12:11.088Z,100.00
2023-07-27T07:14:55.244Z,100.00
2023-07-27T07:17:39.420Z,100.00
2023-07-27T07:20:25.159Z,100.00
2023-07-27T07:23:09.445Z,100.00
2023-07-27T07:25:53.753Z,100.00
2023-07-27T07:28:37.722Z,100.00
2023-07-27T07:31:21.885Z,100.00
2023-07-27T07:34:06.133Z,100.00
2023-07-27T07:36:51.613Z,100.00
2023-07-27T07:39:35.821Z,100.00
2023-07-27T07:42:19.983Z,100.00
2023-07-27T07:45:04.196Z,100.00
2023-07-27T07:47:49.941Z,100.00
2023-07-27T07:50:38.340Z,100.00
2023-07-27T07:53:33.888Z,100.00
2023-07-27T07:56:21.961Z,100.00
2023-07-27T07:59:06.012Z,100.00
2023-07-27T08:01:50.145Z,100.00
2023-07-27T08:04:34.368Z,100.00
2023-07-27T08:07:18.545Z,100.00
2023-07-27T08:10:04.695Z,100.00
2023-07-27T08:12:50.922Z,100.00
2023-07-27T08:15:35.138Z,100.00
2023-07-27T08:18:19.243Z,100.00
2023-07-27T08:21:05.523Z,100.00
2023-07-27T08:23:49.633Z,100.00
2023-07-27T08:26:35.614Z,100.00
2023-07-27T08:29:19.975Z,100.00
2023-07-27T08:32:04.594Z,100.00
2023-07-27T08:34:48.732Z,100.00
2023-07-27T08:37:32.758Z,100.00
2023-07-27T08:40:17.116Z,100.00
2023-07-27T08:43:05.177Z,100.00
2023-07-27T08:45:50.225Z,100.00
2023-07-27T08:48:35.639Z,100.00
2023-07-27T08:51:20.231Z,100.00
2023-07-27T08:54:04.466Z,100.00
2023-07-27T08:56:48.551Z,100.00
2023-07-27T08:59:34.856Z,100.00
2023-07-27T09:02:19.132Z,100.00
2023-07-27T09:05:03.278Z,100.00
2023-07-27T09:07:52.073Z,100.00
2023-07-27T09:10:36.389Z,100.00
2023-07-27T09:13:20.399Z,100.00
2023-07-27T09:16:07.142Z,100.00
2023-07-27T09:18:51.300Z,100.00
2023-07-27T09:21:41.294Z,100.00
2023-07-27T09:24:25.504Z,100.00
2023-07-27T09:27:13.234Z,100.00
2023-07-27T09:29:59.777Z,100.00
2023-07-27T09:32:45.437Z,100.00
2023-07-27T09:35:29.473Z,100.00
2023-07-27T09:38:13.565Z,100.00
2023-07-27T09:40:57.587Z,100.00
2023-07-27T09:43:42.038Z,100.00
2023-07-27T09:46:26.893Z,100.00
2023-07-27T09:49:13.329Z,100.00
2023-07-27T09:51:58.148Z,100.00
2023-07-27T09:54:43.490Z,100.00
2023-07-27T09:57:28.889Z,100.00
2023-07-27T10:00:14.311Z,100.00
2023-07-27T10:03:09.366Z,100.00
2023-07-27T10:05:56.148Z,100.00
2023-07-27T10:08:40.735Z,100.00
2023-07-27T10:11:32.773Z,100.00
2023-07-27T10:14:21.136Z,100.00
2023-07-27T10:17:08.346Z,100.00
2023-07-27T10:19:53.553Z,100.00
2023-07-27T10:22:39.505Z,100.00
2023-07-27T10:25:23.590Z,100.00
2023-07-27T10:28:11.282Z,100.00
2023-07-27T10:31:17.586Z,100.00
2023-07-27T10:34:23.200Z,100.00
2023-07-27T10:37:10.314Z,100.00
2023-07-27T10:39:57.818Z,100.00
2023-07-27T10:42:58.031Z,100.00
2023-07-27T10:45:42.031Z,100.00
2023-07-27T10:48:26.206Z,100.00
2023-07-27T10:51:11.195Z,100.00
2023-07-27T10:53:55.175Z,100.00
2023-07-27T10:56:42.795Z,100.00
2023-07-27T10:59:30.225Z,100.00
2023-07-27T11:02:21.741Z,100.00
2023-07-27T11:05:08.540Z,100.00
2023-07-27T11:07:52.914Z,100.00
2023-07-27T11:10:37.038Z,100.00
2023-07-27T11:13:26.242Z,100.00
2023-07-27T11:16:10.600Z,100.00
2023-07-27T11:18:55.134Z,100.00
2023-07-27T11:21:41.886Z,100.00
2023-07-27T11:24:27.756Z,100.00
2023-07-27T11:27:14.084Z,100.00
2023-07-27T11:30:01.684Z,100.00
2023-07-27T11:33:00.423Z,100.00
2023-07-27T11:35:47.856Z,100.00
2023-07-27T11:38:31.982Z,100.00
2023-07-27T11:41:45.640Z,100.00
2023-07-27T11:44:22.700Z,100.00
2023-07-27T11:47:09.316Z,100.00
2023-07-27T11:49:53.951Z,100.00
2023-07-27T11:52:40.340Z,100.00
2023-07-27T11:55:24.582Z,100.00
2023-07-27T11:58:10.699Z,100.00
2023-07-27T12:00:56.483Z,100.00
2023-07-27T12:03:46.306Z,100.00
2023-07-27T12:06:31.245Z,100.00
2023-07-27T12:09:15.848Z,100.00
2023-07-27T12:12:00.142Z,100.00
2023-07-27T12:14:45.487Z,100.00
2023-07-27T12:20:25.552Z,100.00
2023-07-27T12:29:40.952Z,100.00
2023-07-27T12:37:37.979Z,100.00
2023-07-27T12:43:26.648Z,100.00
2023-07-27T12:46:12.344Z,100.00
2023-07-27T12:48:56.571Z,100.00
2023-07-27T12:51:41.646Z,100.00
2023-07-27T12:54:28.577Z,100.00
2023-07-27T12:57:14.274Z,100.00
2023-07-27T12:59:59.478Z,100.00
2023-07-27T13:02:45.291Z,100.00
2023-07-27T13:05:30.718Z,100.00
2023-07-27T13:08:15.936Z,100.00
2023-07-27T13:11:02.700Z,100.00
2023-07-27T13:13:48.130Z,100.00
2023-07-27T13:16:35.578Z,100.00
2023-07-27T13:19:21.106Z,100.00
2023-07-27T13:22:07.032Z,100.00
2023-07-27T13:24:53.259Z,100.00
2023-07-27T13:27:40.106Z,100.00
2023-07-27T13:30:25.523Z,100.00
2023-07-27T13:33:10.931Z,100.00
2023-07-27T13:35:56.338Z,100.00
2023-07-27T13:38:41.769Z,100.00
2023-07-27T13:41:26.994Z,100.00
2023-07-27T13:44:13.849Z,100.00
2023-07-27T13:46:59.106Z,100.00
2023-07-27T13:49:44.483Z,100.00
2023-07-27T13:52:29.705Z,100.00
2023-07-27T13:55:15.220Z,100.00
2023-07-27T13:58:00.585Z,100.00
2023-07-27T14:00:47.790Z,100.00
2023-07-27T14:03:32.928Z,100.00
2023-07-27T14:06:17.593Z,100.00
2023-07-27T14:09:02.773Z,100.00
2023-07-27T14:11:47.976Z,100.00
2023-07-27T14:14:32.569Z,100.00
2023-07-27T14:17:19.087Z,100.00
2023-07-27T14:20:04.015Z,100.00
2023-07-27T14:22:49.867Z,100.00
2023-07-27T14:25:35.351Z,100.00
2023-07-27T14:28:20.643Z,100.00
2023-07-27T14:31:12.087Z,100.00
2023-07-27T14:34:02.555Z,100.00
2023-07-27T14:36:48.401Z,100.00
2023-07-27T14:42:21.254Z,100.00
2023-07-27T14:45:06.756Z,100.00
2023-07-27T14:47:52.889Z,100.00
2023-07-27T14:50:39.861Z,100.00
2023-07-27T14:53:25.445Z,100.00
2023-07-27T14:56:10.356Z,100.00
2023-07-27T14:58:56.468Z,100.00
2023-07-27T15:01:52.346Z,100.00
2023-07-27T15:07:26.693Z,100.00
2023-07-27T15:10:29.230Z,100.00
2023-07-27T15:13:15.566Z,100.00
2023-07-27T15:15:59.889Z,100.00
2023-07-27T15:18:44.246Z,100.00
2023-07-27T15:21:28.560Z,100.00
2023-07-27T15:24:14.497Z,100.00
2023-07-27T15:26:59.400Z,100.00
2023-07-27T15:29:56.187Z,100.00
2023-07-27T15:32:40.962Z,100.00
2023-07-27T15:35:26.167Z,100.00
2023-07-27T15:38:10.523Z,100.00
2023-07-27T15:40:58.435Z,100.00
2023-07-27T15:43:43.662Z,100.00
2023-07-27T15:46:28.052Z,100.00
2023-07-27T15:49:12.570Z,100.00
2023-07-27T15:51:56.639Z,100.00
2023-07-27T15:54:40.769Z,100.00
2023-07-27T15:57:26.446Z,100.00
2023-07-27T16:00:12.146Z,100.00
2023-07-27T16:02:56.446Z,100.00
2023-07-27T16:05:41.007Z,100.00
2023-07-27T16:08:26.119Z,100.00
2023-07-27T16:11:13.863Z,100.00
2023-07-27T16:13:59.541Z,100.00
2023-07-27T16:16:44.052Z,100.00
2023-07-27T16:19:30.226Z,100.00
2023-07-27T16:22:14.405Z,100.00
2023-07-27T16:24:59.189Z,100.00
2023-07-27T16:27:44.124Z,100.00
2023-07-27T16:30:30.353Z,100.00
2023-07-27T16:33:14.890Z,100.00
2023-07-27T16:35:59.157Z,100.00
2023-07-27T16:38:43.746Z,100.00
2023-07-27T16:41:28.368Z,100.00
2023-07-27T16:44:12.695Z,100.00
2023-07-27T16:46:58.845Z,100.00
2023-07-27T16:49:43.514Z,100.00
2023-07-27T16:52:27.801Z,100.00
2023-07-27T16:55:12.661Z,100.00
2023-07-27T16:57:57.471Z,100.00
2023-07-27T17:00:42.337Z,100.00
2023-07-27T17:03:29.196Z,100.00
2023-07-27T17:06:16.011Z,100.00
2023-07-27T17:09:00.750Z,100.00
2023-07-27T17:11:46.185Z,100.00
2023-07-27T17:14:31.797Z,100.00
2023-07-27T17:17:16.869Z,100.00
2023-07-27T17:20:03.925Z,100.00
2023-07-27T17:22:49.900Z,100.00
2023-07-27T17:25:35.160Z,100.00
2023-07-27T17:28:20.607Z,100.00
2023-07-27T17:31:06.958Z,100.00
2023-07-27T17:33:52.298Z,100.00
2023-07-27T17:36:41.272Z,100.00
2023-07-27T17:39:26.535Z,100.00
2023-07-27T17:42:11.138Z,100.00
2023-07-27T17:44:56.315Z,100.00
2023-07-27T17:47:41.802Z,100.00
2023-07-27T17:50:27.232Z,100.00
2023-07-27T17:53:13.894Z,100.00
2023-07-27T17:56:05.428Z,100.00
2023-07-27T17:58:50.786Z,100.00
2023-07-27T18:01:36.387Z,100.00
2023-07-27T18:04:21.919Z,100.00
2023-07-27T18:07:07.912Z,100.00
2023-07-27T18:09:55.104Z,100.00
2023-07-27T18:12:40.619Z,100.00
2023-07-27T18:15:26.014Z,100.00
2023-07-27T18:18:10.564Z,100.00
2023-07-27T18:20:55.610Z,100.00
2023-07-27T18:23:41.299Z,100.00
2023-07-27T18:26:28.138Z,100.00
2023-07-27T18:29:13.586Z,100.00
2023-07-27T18:31:58.873Z,100.00
2023-07-27T18:34:44.122Z,100.00
2023-07-27T18:37:28.915Z,100.00
2023-07-27T18:40:14.215Z,100.00
2023-07-27T18:42:59.657Z,100.00
2023-07-27T18:45:51.228Z,100.00
2023-07-27T18:48:35.283Z,100.00
2023-07-27T18:51:19.457Z,100.00
2023-07-27T18:54:03.587Z,100.00
2023-07-27T18:56:47.663Z,100.00
2023-07-27T18:59:33.206Z,100.00
2023-07-27T19:02:17.410Z,100.00
2023-07-27T19:05:01.581Z,100.00
2023-07-27T19:07:48.239Z,100.00
2023-07-27T19:10:32.217Z,100.00
2023-07-27T19:13:16.362Z,100.00
2023-07-27T19:16:05.994Z,100.00
2023-07-27T19:18:50.036Z,100.00
2023-07-27T19:21:34.388Z,100.00
2023-07-27T19:24:18.656Z,100.00
2023-07-27T19:27:02.656Z,100.00
2023-07-27T19:29:46.752Z,100.00
2023-07-27T19:32:32.404Z,100.00
2023-07-27T19:35:17.235Z,100.00
2023-07-27T19:38:01.506Z,100.00
2023-07-27T19:40:45.612Z,100.00
2023-07-27T19:43:29.698Z,100.00
2023-07-27T19:46:13.818Z,100.00
2023-07-27T19:48:59.387Z,100.00
2023-07-27T19:51:43.441Z,100.00
2023-07-27T19:54:27.862Z,100.00
2023-07-27T19:57:12.045Z,100.00
2023-07-27T19:59:56.851Z,100.00
2023-07-27T20:02:40.999Z,100.00
2023-07-27T20:05:26.661Z,100.00
2023-07-27T20:08:10.744Z,100.00
2023-07-27T20:10:54.858Z,100.00
2023-07-27T20:13:38.962Z,100.00
2023-07-27T20:16:24.231Z,100.00
2023-07-27T20:19:08.931Z,100.00
2023-07-27T20:21:55.492Z,100.00
2023-07-27T20:24:41.656Z,100.00
2023-07-27T20:27:27.546Z,100.00
2023-07-27T20:30:12.644Z,100.00
2023-07-27T20:32:56.805Z,100.00
2023-07-27T20:35:40.956Z,100.00
2023-07-27T20:38:26.527Z,100.00
2023-07-27T20:41:10.492Z,100.00
2023-07-27T20:43:54.655Z,100.00
2023-07-27T20:46:38.793Z,100.00
2023-07-27T20:49:23.074Z,100.00
2023-07-27T20:52:07.923Z,100.00
2023-07-27T20:54:53.290Z,100.00
2023-07-27T20:57:37.387Z,100.00
2023-07-27T21:00:21.509Z,100.00
2023-07-27T21:03:06.201Z,100.00
2023-07-27T21:05:50.536Z,100.00
2023-07-27T21:08:35.770Z,100.00
2023-07-27T21:11:21.479Z,100.00
2023-07-27T21:14:05.510Z,100.00
2023-07-27T21:16:50.026Z,100.00
2023-07-27T21:19:34.179Z,100.00
2023-07-27T21:22:18.225Z,100.00
2023-07-27T21:25:02.325Z,100.00
2023-07-27T21:27:49.455Z,100.00
2023-07-27T21:30:33.765Z,100.00
2023-07-27T21:33:27.116Z,100.00
2023-07-27T21:36:12.880Z,100.00
2023-07-27T21:38:56.931Z,100.00
2023-07-27T21:41:40.999Z,100.00
2023-07-27T21:44:26.705Z,100.00
2023-07-27T21:47:10.799Z,100.00
2023-07-27T21:49:54.804Z,100.00
2023-07-27T21:52:38.884Z,100.00
2023-07-27T21:55:23.131Z,100.00
2023-07-27T21:58:07.120Z,100.00
2023-07-27T22:00:52.673Z,100.00
2023-07-27T22:03:37.223Z,100.00
2023-07-27T22:06:21.329Z,100.00
2023-07-27T22:09:05.839Z,100.00
2023-07-27T22:11:49.928Z,100.00
2023-07-27T22:14:34.054Z,100.00
2023-07-27T22:17:19.573Z,100.00
2023-07-27T22:20:03.811Z,100.00
2023-07-27T22:22:50.779Z,100.00
2023-07-27T22:25:34.898Z,100.00
2023-07-27T22:28:19.092Z,100.00
2023-07-27T22:31:04.484Z,100.00
2023-07-27T22:33:50.282Z,100.00
2023-07-27T22:36:34.681Z,100.00
2023-07-27T22:39:19.708Z,100.00
2023-07-27T22:42:03.835Z,100.00
2023-07-27T22:44:47.818Z,100.00
2023-07-27T22:47:31.935Z,100.00
2023-07-27T22:50:17.519Z,100.00
2023-07-27T22:53:01.528Z,100.00
2023-07-27T22:55:46.514Z,100.00
2023-07-27T22:58:30.518Z,100.00
2023-07-27T23:01:15.625Z,100.00
2023-07-27T23:03:59.778Z,100.00
2023-07-27T23:06:45.169Z,100.00
2023-07-27T23:09:29.266Z,100.00
2023-07-27T23:12:13.197Z,100.00
2023-07-27T23:14:57.211Z,100.00
2023-07-27T23:17:41.114Z,100.00
2023-07-27T23:20:25.129Z,100.00
2023-07-27T23:23:10.578Z,100.00
2023-07-27T23:25:54.541Z,100.00
2023-07-27T23:28:38.627Z,100.00
2023-07-27T23:31:22.723Z,100.00
2023-07-27T23:34:06.834Z,100.00
2023-07-27T23:36:50.862Z,100.00
2023-07-27T23:39:36.281Z,100.00
2023-07-27T23:42:20.419Z,100.00
2023-07-27T23:45:05.211Z,100.00
2023-07-27T23:47:49.404Z,100.00
2023-07-27T23:50:33.632Z,100.00
2023-07-27T23:53:17.971Z,100.00
2023-07-27T23:56:03.372Z,100.00
2023-07-27T23:58:47.379Z,100.00
